Time;durP1;ratioP1;P1;durP2;ratioP2;P2;SDS_P1;SDS_P2;PMS_P1;PMS_P2;Temp;Humidity;BMP_temperature;BMP_pressure;BME280_temperature;BME280_humidity;BME280_pressure;Samples;Min_cycle;Max_cycle;Signal;HPM_P1;HPM_P2
2023/09/27 00:01:27;;;;;;;11.52;8.63;;;13.60;69.70;;;;;;7376147;19;20042;-71
2023/09/27 00:03:57;;;;;;;11.63;9.23;;;13.60;71.70;;;;;;7377728;19;20107;-72
2023/09/27 00:06:30;;;;;;;15.27;9.63;;;13.60;72.70;;;;;;7376552;19;20014;-72
2023/09/27 00:09:00;;;;;;;10.52;9.20;;;13.60;76.70;;;;;;7376690;19;20078;-71
2023/09/27 00:11:31;;;;;;;15.18;9.73;;;13.60;82.00;;;;;;7375636;19;20018;-71
2023/09/27 00:14:01;;;;;;;13.35;10.18;;;13.60;87.10;;;;;;7378097;19;20003;-71
2023/09/27 00:16:32;;;;;;;16.10;10.05;;;13.60;89.30;;;;;;7377461;19;20486;-70
2023/09/27 00:19:03;;;;;;;13.07;10.52;;;13.60;91.10;;;;;;7378544;19;20022;-70
2023/09/27 00:21:36;;;;;;;13.55;10.60;;;13.60;93.80;;;;;;7376660;19;20011;-71
2023/09/27 00:24:06;;;;;;;12.77;11.30;;;13.60;95.10;;;;;;7378329;19;20019;-72
2023/09/27 00:26:36;;;;;;;13.48;10.57;;;13.50;96.90;;;;;;7374791;19;20018;-72
2023/09/27 00:29:06;;;;;;;13.50;11.77;;;13.50;99.30;;;;;;7377995;19;20024;-70
2023/09/27 00:31:36;;;;;;;13.68;11.23;;;13.50;99.90;;;;;;7376653;19;20041;-71
2023/09/27 00:34:06;;;;;;;18.90;13.27;;;13.40;99.90;;;;;;7377809;19;20010;-71
2023/09/27 00:36:39;;;;;;;14.25;11.95;;;13.40;99.90;;;;;;7377026;19;20073;-73
2023/09/27 00:39:09;;;;;;;15.52;12.23;;;13.40;99.90;;;;;;7378471;19;20077;-70
2023/09/27 00:41:39;;;;;;;18.30;14.15;;;13.40;99.90;;;;;;7375453;19;20018;-71
2023/09/27 00:44:09;;;;;;;18.27;14.02;;;13.50;99.90;;;;;;7375953;19;20010;-71
2023/09/27 00:46:39;;;;;;;19.40;15.27;;;13.50;99.90;;;;;;7374630;19;20015;-71
2023/09/27 00:49:11;;;;;;;21.33;14.82;;;13.40;99.90;;;;;;7377083;19;20054;-70
2023/09/27 00:51:44;;;;;;;19.27;14.40;;;13.40;99.90;;;;;;7374260;19;20351;-70
2023/09/27 00:54:14;;;;;;;20.33;14.65;;;13.30;99.90;;;;;;7377980;19;20097;-70
2023/09/27 00:56:45;;;;;;;16.67;13.43;;;13.30;99.90;;;;;;7375843;19;20031;-70
2023/09/27 00:59:16;;;;;;;18.55;14.00;;;13.30;99.90;;;;;;7376916;19;20010;-70
2023/09/27 01:01:48;;;;;;;17.48;14.15;;;13.30;99.90;;;;;;7374416;19;20070;-70
2023/09/27 01:04:19;;;;;;;15.45;12.98;;;13.30;99.90;;;;;;7378255;19;20070;-70
2023/09/27 01:06:52;;;;;;;18.80;13.27;;;13.30;99.90;;;;;;7375560;19;20018;-71
2023/09/27 01:09:22;;;;;;;13.93;11.60;;;13.20;99.90;;;;;;7374115;19;20405;-71
2023/09/27 01:11:53;;;;;;;14.73;11.27;;;13.20;99.90;;;;;;7374500;19;20029;-72
2023/09/27 01:14:23;;;;;;;16.67;12.05;;;13.20;99.90;;;;;;7376157;19;20014;-71
2023/09/27 01:16:53;;;;;;;14.73;12.27;;;13.20;99.90;;;;;;7374904;19;20038;-70
2023/09/27 01:19:23;;;;;;;13.98;11.40;;;13.10;99.90;;;;;;7375693;19;20010;-71
2023/09/27 01:21:55;;;;;;;14.80;11.85;;;13.00;99.90;;;;;;7374950;19;20014;-71
2023/09/27 01:24:29;;;;;;;17.02;11.73;;;13.00;99.90;;;;;;7371421;19;20031;-71
2023/09/27 01:27:00;;;;;;;14.57;11.43;;;13.00;99.90;;;;;;7375420;19;20022;-71
2023/09/27 01:29:30;;;;;;;13.02;10.82;;;13.00;99.90;;;;;;7376550;19;20355;-71
2023/09/27 01:32:00;;;;;;;14.25;10.35;;;13.00;99.90;;;;;;7376286;19;20046;-71
2023/09/27 01:34:30;;;;;;;13.63;10.15;;;13.10;99.90;;;;;;7373644;19;20035;-71
2023/09/27 01:37:01;;;;;;;10.52;9.43;;;13.10;99.90;;;;;;7373562;19;20698;-71
2023/09/27 01:39:33;;;;;;;11.80;9.50;;;13.10;99.90;;;;;;7374764;19;20018;-72
2023/09/27 01:42:04;;;;;;;12.52;10.70;;;13.10;99.90;;;;;;7374580;19;20011;-72
2023/09/27 01:44:34;;;;;;;13.10;9.98;;;13.00;99.90;;;;;;7376345;19;20072;-72
2023/09/27 01:47:04;;;;;;;13.30;9.75;;;13.10;99.90;;;;;;7374358;19;20029;-71
2023/09/27 01:49:34;;;;;;;12.55;9.93;;;13.00;99.90;;;;;;7374304;19;20015;-71
2023/09/27 01:52:04;;;;;;;15.73;10.05;;;13.00;99.90;;;;;;7375177;19;20027;-71
2023/09/27 01:54:36;;;;;;;12.48;9.07;;;13.00;99.90;;;;;;7375739;19;20780;-71
2023/09/27 01:57:06;;;;;;;13.35;9.88;;;13.00;99.90;;;;;;7373838;19;20042;-71
2023/09/27 01:59:36;;;;;;;12.32;10.63;;;12.90;99.90;;;;;;7373662;19;20014;-71
2023/09/27 02:02:06;;;;;;;11.73;9.88;;;12.90;99.90;;;;;;7375794;19;20380;-71
2023/09/27 02:04:36;;;;;;;21.90;12.63;;;12.90;99.90;;;;;;7375359;19;20025;-71
2023/09/27 02:07:06;;;;;;;16.98;10.45;;;12.90;99.90;;;;;;7374918;19;20020;-71
2023/09/27 02:09:39;;;;;;;16.73;11.07;;;12.90;99.90;;;;;;7372466;19;20110;-71
2023/09/27 02:12:09;;;;;;;13.18;11.43;;;12.90;99.90;;;;;;7376074;19;20019;-71
2023/09/27 02:14:39;;;;;;;12.73;10.23;;;12.90;99.90;;;;;;7373540;19;20086;-71
2023/09/27 02:17:09;;;;;;;12.05;9.95;;;12.90;99.90;;;;;;7373237;19;20014;-71
2023/09/27 02:19:39;;;;;;;19.23;11.48;;;12.90;99.90;;;;;;7372605;19;20019;-71
2023/09/27 02:22:10;;;;;;;15.55;11.10;;;12.90;99.90;;;;;;7374590;19;20035;-71
2023/09/27 02:24:43;;;;;;;16.13;10.63;;;12.80;99.90;;;;;;7375268;19;20017;-71
2023/09/27 02:27:14;;;;;;;14.52;10.23;;;12.80;99.90;;;;;;7374932;19;20025;-70
2023/09/27 02:29:45;;;;;;;17.13;11.15;;;12.70;99.90;;;;;;7369431;19;20018;-70
2023/09/27 02:32:15;;;;;;;17.15;11.18;;;12.70;99.90;;;;;;7375069;19;20010;-70
2023/09/27 02:34:46;;;;;;;19.48;11.93;;;12.70;99.90;;;;;;7375028;19;20806;-70
2023/09/27 02:37:17;;;;;;;18.60;11.25;;;12.70;99.90;;;;;;7381541;19;20027;-70
2023/09/27 02:39:49;;;;;;;19.25;11.00;;;12.70;99.90;;;;;;7376818;19;20014;-70
2023/09/27 02:42:20;;;;;;;16.30;10.50;;;12.70;99.90;;;;;;7381685;19;20095;-71
2023/09/27 02:44:50;;;;;;;17.13;11.30;;;12.70;99.90;;;;;;7379886;19;20018;-71
2023/09/27 02:47:20;;;;;;;15.45;11.32;;;12.70;99.90;;;;;;7382717;19;20388;-71
2023/09/27 02:49:50;;;;;;;16.20;11.90;;;12.70;99.90;;;;;;7393280;19;20035;-70
2023/09/27 02:52:20;;;;;;;16.10;10.57;;;12.70;99.90;;;;;;7392851;19;20439;-71
2023/09/27 02:54:53;;;;;;;18.70;11.93;;;12.70;99.90;;;;;;7388665;19;20028;-71
2023/09/27 02:57:23;;;;;;;12.15;10.02;;;12.80;99.90;;;;;;7385393;19;20718;-71
2023/09/27 02:59:53;;;;;;;14.25;10.38;;;12.80;99.90;;;;;;7378088;19;20018;-71
2023/09/27 03:02:23;;;;;;;13.40;10.50;;;12.70;99.90;;;;;;7379912;19;20015;-71
2023/09/27 03:04:53;;;;;;;16.25;10.35;;;12.70;99.90;;;;;;7378675;19;20076;-70
2023/09/27 03:07:23;;;;;;;12.55;9.93;;;12.70;99.90;;;;;;7380996;19;20048;-70
2023/09/27 03:09:58;;;;;;;14.70;10.50;;;12.70;99.90;;;;;;7377532;19;20022;-71
2023/09/27 03:12:28;;;;;;;12.43;10.95;;;12.70;99.90;;;;;;7379796;19;20085;-70
2023/09/27 03:14:58;;;;;;;13.48;10.60;;;12.70;99.90;;;;;;7375178;19;20014;-71
2023/09/27 03:17:30;;;;;;;13.32;10.27;;;12.80;99.90;;;;;;7377476;19;21097;-70
2023/09/27 03:20:00;;;;;;;13.13;10.80;;;12.80;99.90;;;;;;7375757;19;20756;-70
2023/09/27 03:22:30;;;;;;;15.48;10.90;;;12.70;99.90;;;;;;7380564;19;20405;-70
2023/09/27 03:25:03;;;;;;;17.95;11.15;;;12.70;99.90;;;;;;7376180;19;20517;-71
2023/09/27 03:27:33;;;;;;;14.57;10.80;;;12.60;99.90;;;;;;7378966;19;20006;-70
2023/09/27 03:30:03;;;;;;;13.27;10.40;;;12.60;99.90;;;;;;7375912;19;20609;-70
2023/09/27 03:32:33;;;;;;;17.52;11.82;;;12.50;99.90;;;;;;7377973;19;20041;-71
2023/09/27 03:35:04;;;;;;;17.63;12.07;;;12.40;99.90;;;;;;7377591;19;20507;-71
2023/09/27 03:37:34;;;;;;;16.42;11.98;;;12.30;99.90;;;;;;7379593;19;20022;-70
2023/09/27 03:40:13;;;;;;;13.68;11.40;;;12.40;99.90;;;;;;7377757;19;20011;-71
2023/09/27 03:42:45;;;;;;;13.68;11.27;;;12.40;99.90;;;;;;7376797;19;20335;-71
2023/09/27 03:45:16;;;;;;;16.38;11.43;;;12.40;99.90;;;;;;7378818;19;20014;-71
2023/09/27 03:47:47;;;;;;;23.52;11.65;;;12.40;99.90;;;;;;7378087;19;20470;-70
2023/09/27 03:50:18;;;;;;;14.25;11.80;;;12.40;99.90;;;;;;7375031;19;20017;-70
2023/09/27 03:52:48;;;;;;;13.95;11.15;;;12.40;99.90;;;;;;7376261;19;20019;-70
2023/09/27 03:55:20;;;;;;;12.43;10.38;;;12.30;99.90;;;;;;7377133;19;20019;-71
2023/09/27 03:57:51;;;;;;;13.70;10.45;;;12.30;99.90;;;;;;7377020;19;20018;-71
2023/09/27 04:00:22;;;;;;;13.38;11.05;;;12.30;99.90;;;;;;7377761;19;20490;-71
2023/09/27 04:02:52;;;;;;;17.55;12.05;;;12.30;99.90;;;;;;7379116;19;20949;-71
2023/09/27 04:05:23;;;;;;;13.23;11.05;;;12.30;99.90;;;;;;7378520;19;20014;-71
2023/09/27 04:07:54;;;;;;;13.68;11.32;;;12.30;99.90;;;;;;7383749;19;20345;-70
2023/09/27 04:10:28;;;;;;;12.80;11.05;;;12.20;99.90;;;;;;7376877;19;20023;-70
2023/09/27 04:12:58;;;;;;;15.40;11.85;;;12.10;99.90;;;;;;7377439;19;20017;-70
2023/09/27 04:15:28;;;;;;;16.23;11.23;;;12.10;99.90;;;;;;7378279;19;20012;-70
2023/09/27 04:17:58;;;;;;;12.70;11.25;;;12.10;99.90;;;;;;7379191;19;20010;-70
2023/09/27 04:20:28;;;;;;;11.93;10.65;;;12.10;99.90;;;;;;7377231;19;20028;-70
2023/09/27 04:23:02;;;;;;;14.75;11.20;;;12.00;99.90;;;;;;7378573;19;20025;-70
2023/09/27 04:25:35;;;;;;;14.88;11.77;;;12.00;99.90;;;;;;7378090;19;20014;-71
2023/09/27 04:28:06;;;;;;;16.25;11.98;;;12.00;99.90;;;;;;7376199;19;20018;-71
2023/09/27 04:30:36;;;;;;;14.70;11.60;;;12.00;99.90;;;;;;7374795;19;20027;-71
2023/09/27 04:33:07;;;;;;;13.57;11.85;;;12.00;99.90;;;;;;7378232;19;20014;-70
2023/09/27 04:35:37;;;;;;;18.10;12.38;;;11.90;99.90;;;;;;7378510;19;20024;-72
2023/09/27 04:38:07;;;;;;;15.52;11.80;;;11.90;99.90;;;;;;7377549;19;20047;-71
2023/09/27 04:40:39;;;;;;;13.80;11.05;;;11.90;99.90;;;;;;7374275;19;20006;-71
2023/09/27 04:43:09;;;;;;;13.98;10.75;;;11.90;99.90;;;;;;7377883;19;20027;-70
2023/09/27 04:45:40;;;;;;;14.95;11.38;;;11.90;99.90;;;;;;7376492;19;20471;-71
2023/09/27 04:48:10;;;;;;;13.02;11.27;;;11.90;99.90;;;;;;7378648;19;20006;-71
2023/09/27 04:50:40;;;;;;;15.70;11.10;;;11.90;99.90;;;;;;7375897;19;20010;-70
2023/09/27 04:53:10;;;;;;;13.93;11.18;;;11.80;99.90;;;;;;7380621;19;20089;-70
2023/09/27 04:55:43;;;;;;;12.50;10.05;;;11.80;99.90;;;;;;7377789;19;20668;-70
2023/09/27 04:58:13;;;;;;;13.82;10.43;;;11.80;99.90;;;;;;7378456;19;20760;-70
2023/09/27 05:00:43;;;;;;;13.85;10.85;;;11.70;99.90;;;;;;7375513;19;20010;-70
2023/09/27 05:03:13;;;;;;;12.25;10.30;;;11.70;99.90;;;;;;7377871;19;20033;-71
2023/09/27 05:05:43;;;;;;;16.33;10.85;;;11.70;99.90;;;;;;7375818;19;20082;-70
2023/09/27 05:08:14;;;;;;;14.63;10.88;;;11.60;99.90;;;;;;7378232;19;20106;-70
2023/09/27 05:10:46;;;;;;;12.63;10.18;;;11.60;99.90;;;;;;7374899;19;20752;-70
2023/09/27 05:13:20;;;;;;;15.00;10.07;;;11.60;99.90;;;;;;7378059;19;20066;-71
2023/09/27 05:15:52;;;;;;;14.45;11.55;;;11.60;99.90;;;;;;7377370;19;20035;-70
2023/09/27 05:18:23;;;;;;;13.63;10.82;;;11.60;99.90;;;;;;7379136;19;20122;-71
2023/09/27 05:20:53;;;;;;;12.68;10.25;;;11.60;99.90;;;;;;7374850;19;20014;-70
2023/09/27 05:23:23;;;;;;;14.43;9.48;;;11.60;99.90;;;;;;7378138;19;20017;-71
2023/09/27 05:25:55;;;;;;;12.27;10.13;;;11.60;99.90;;;;;;7375665;19;20042;-71
2023/09/27 05:28:26;;;;;;;15.20;10.48;;;11.50;99.90;;;;;;7376116;19;20479;-71
2023/09/27 05:30:56;;;;;;;12.10;10.35;;;11.50;99.90;;;;;;7374272;19;20044;-71
2023/09/27 05:33:27;;;;;;;15.50;10.90;;;11.50;99.90;;;;;;7375159;19;20538;-72
2023/09/27 05:35:57;;;;;;;17.65;11.18;;;11.50;99.90;;;;;;7374302;19;20017;-71
2023/09/27 05:38:28;;;;;;;14.05;10.02;;;11.50;99.90;;;;;;7375006;19;20038;-72
2023/09/27 05:41:00;;;;;;;12.68;10.65;;;11.60;99.90;;;;;;7374808;19;20044;-71
2023/09/27 05:43:30;;;;;;;17.70;11.23;;;11.60;99.90;;;;;;7377835;19;20026;-71
2023/09/27 05:46:00;;;;;;;14.38;11.07;;;11.70;99.90;;;;;;7374739;19;20018;-71
2023/09/27 05:48:30;;;;;;;13.68;9.75;;;11.80;99.90;;;;;;7376877;19;20667;-70
2023/09/27 05:51:00;;;;;;;15.60;11.20;;;12.00;99.90;;;;;;7373420;19;20025;-70
2023/09/27 05:53:30;;;;;;;16.13;11.50;;;12.10;99.90;;;;;;7373961;19;20046;-71
2023/09/27 05:56:03;;;;;;;14.18;11.25;;;12.20;99.90;;;;;;7373085;19;20098;-70
2023/09/27 05:58:35;;;;;;;16.15;11.38;;;12.30;99.90;;;;;;7376393;19;20085;-70
2023/09/27 06:01:07;;;;;;;14.57;10.77;;;12.50;99.90;;;;;;7380713;19;20483;-71
2023/09/27 06:03:38;;;;;;;14.55;11.07;;;12.50;99.90;;;;;;7384487;19;20006;-71
2023/09/27 06:06:08;;;;;;;14.50;10.63;;;12.60;98.20;;;;;;7384996;19;20015;-71
2023/09/27 06:08:38;;;;;;;15.30;10.35;;;12.70;94.50;;;;;;7382887;19;20014;-71
2023/09/27 06:11:12;;;;;;;12.20;10.15;;;12.80;84.60;;;;;;7387653;19;20011;-71
2023/09/27 06:13:44;;;;;;;15.13;10.75;;;12.90;82.00;;;;;;7388163;19;20115;-70
2023/09/27 06:16:16;;;;;;;13.02;9.98;;;13.00;73.30;;;;;;7387799;19;20021;-71
2023/09/27 06:18:47;;;;;;;11.75;10.43;;;13.10;68.60;;;;;;7387612;19;20597;-71
2023/09/27 06:21:17;;;;;;;13.05;10.80;;;13.10;57.50;;;;;;7386786;19;20035;-72
2023/09/27 06:23:47;;;;;;;14.52;10.35;;;13.10;58.30;;;;;;7389913;19;20109;-71
2023/09/27 06:26:21;;;;;;;12.45;10.15;;;13.10;48.30;;;;;;7407166;19;20010;-71
2023/09/27 06:28:51;;;;;;;11.45;9.88;;;13.20;44.40;;;;;;7386995;19;20051;-71
2023/09/27 06:31:21;;;;;;;15.82;9.55;;;13.30;42.00;;;;;;7388621;19;20024;-71
2023/09/27 06:33:51;;;;;;;16.98;10.57;;;13.20;40.10;;;;;;7386787;19;20007;-71
2023/09/27 06:36:22;;;;;;;14.45;10.60;;;13.30;40.80;;;;;;7385111;19;20046;-71
2023/09/27 06:38:52;;;;;;;16.58;10.02;;;13.40;31.80;;;;;;7387011;19;20011;-71
2023/09/27 06:41:25;;;;;;;12.77;9.98;;;13.50;32.30;;;;;;7385391;19;20026;-71
2023/09/27 06:43:56;;;;;;;15.55;9.77;;;13.50;29.80;;;;;;7384659;19;20538;-71
2023/09/27 06:46:27;;;;;;;13.27;9.55;;;13.60;26.70;;;;;;7385613;19;20573;-72
2023/09/27 06:49:16;;;;;;;13.20;9.63;;;13.70;26.30;;;;;;7386113;19;20032;-71
2023/09/27 06:51:47;;;;;;;14.68;9.45;;;13.70;21.60;;;;;;7384506;19;20102;-71
2023/09/27 06:54:16;;;;;;;15.20;10.02;;;13.80;23.00;;;;;;7385720;19;20074;-71
2023/09/27 06:56:50;;;;;;;12.35;9.32;;;13.90;19.60;;;;;;7384755;19;20018;-70
2023/09/27 06:59:20;;;;;;;11.18;8.95;;;14.00;16.90;;;;;;7387581;19;20014;-71
2023/09/27 07:01:50;;;;;;;13.85;8.90;;;14.00;13.60;;;;;;7380018;19;20014;-73
2023/09/27 07:04:21;;;;;;;14.07;9.55;;;14.10;13.40;;;;;;7385628;19;20014;-70
2023/09/27 07:06:51;;;;;;;13.15;9.40;;;14.20;11.80;;;;;;7383423;19;20018;-70
2023/09/27 07:09:21;;;;;;;11.38;9.70;;;14.10;9.60;;;;;;7386284;19;20046;-71
2023/09/27 07:11:54;;;;;;;16.48;10.73;;;14.30;9.50;;;;;;7382040;19;20014;-71
2023/09/27 07:14:24;;;;;;;12.30;9.38;;;14.30;7.90;;;;;;7384730;19;20088;-70
2023/09/27 07:16:54;;;;;;;12.90;10.30;;;14.40;5.00;;;;;;7381932;19;20013;-71
2023/09/27 07:19:31;;;;;;;14.38;9.43;;;14.30;4.20;;;;;;7385042;19;20006;-71
2023/09/27 07:22:08;;;;;;;13.55;9.57;;;14.40;4.40;;;;;;7380793;19;20018;-72
2023/09/27 07:24:38;;;;;;;13.10;9.85;;;14.50;3.20;;;;;;7386330;19;20010;-72
2023/09/27 07:27:10;;;;;;;15.82;9.70;;;14.70;2.00;;;;;;7386025;19;20014;-71
2023/09/27 07:29:40;;;;;;;14.90;9.20;;;14.70;1.60;;;;;;7385142;19;20014;-71
2023/09/27 07:32:11;;;;;;;15.70;10.23;;;14.90;1.00;;;;;;7384112;19;20014;-71
2023/09/27 07:34:42;;;;;;;14.20;9.68;;;14.90;1.00;;;;;;7383278;19;20010;-71
2023/09/27 07:37:12;;;;;;;11.88;9.70;;;15.00;1.00;;;;;;7383940;19;20014;-70
2023/09/27 07:39:42;;;;;;;13.07;9.75;;;15.20;1.00;;;;;;7379547;19;20067;-70
2023/09/27 07:42:16;;;;;;;11.57;8.85;;;15.20;1.00;;;;;;7382419;19;20573;-70
2023/09/27 07:44:46;;;;;;;15.32;9.40;;;15.20;1.00;;;;;;7382797;19;20355;-69
2023/09/27 07:47:16;;;;;;;13.65;8.45;;;15.20;1.00;;;;;;7384713;19;20637;-71
2023/09/27 07:49:46;;;;;;;10.88;8.70;;;15.30;1.00;;;;;;7381811;19;20010;-70
2023/09/27 07:52:16;;;;;;;11.93;7.85;;;15.30;1.00;;;;;;7383469;19;20007;-70
2023/09/27 07:54:46;;;;;;;10.27;8.05;;;15.50;1.00;;;;;;7381574;19;20487;-70
2023/09/27 07:57:19;;;;;;;13.23;7.18;;;15.70;1.00;;;;;;7381238;19;20018;-71
2023/09/27 07:59:49;;;;;;;7.57;6.72;;;15.80;1.00;;;;;;7377443;19;20089;-71
2023/09/27 08:02:21;;;;;;;9.20;6.82;;;15.80;1.00;;;;;;7380870;19;20018;-70
2023/09/27 08:04:52;;;;;;;10.50;7.70;;;16.10;1.00;;;;;;7377911;19;20022;-71
2023/09/27 08:07:22;;;;;;;9.50;6.93;;;16.20;1.00;;;;;;7380735;19;20006;-74
2023/09/27 08:09:53;;;;;;;10.10;7.43;;;16.30;1.00;;;;;;7378194;19;20696;-71
2023/09/27 08:12:38;;;;;;;11.50;8.13;;;16.50;1.00;;;;;;7381313;19;20021;-71
2023/09/27 08:15:10;;;;;;;6.88;5.95;;;16.70;1.00;;;;;;7379227;19;20034;-71
2023/09/27 08:17:40;;;;;;;7.97;5.60;;;16.60;1.00;;;;;;7378676;19;20015;-70
2023/09/27 08:20:13;;;;;;;6.32;5.38;;;16.70;1.00;;;;;;7376802;19;20034;-71
2023/09/27 08:22:43;;;;;;;7.18;5.55;;;16.90;1.00;;;;;;7380446;19;20017;-70
2023/09/27 08:25:14;;;;;;;8.18;5.43;;;17.00;1.00;;;;;;7377630;19;20097;-71
2023/09/27 08:27:50;;;;;;;8.52;6.10;;;17.30;1.00;;;;;;7379024;19;20018;-70
2023/09/27 08:30:21;;;;;;;7.35;6.38;;;17.20;1.00;;;;;;7376080;19;20016;-71
2023/09/27 08:32:52;;;;;;;8.57;6.03;;;17.20;1.00;;;;;;7377351;19;20033;-71
2023/09/27 08:35:22;;;;;;;9.45;6.13;;;17.30;1.00;;;;;;7375733;19;20015;-71
2023/09/27 08:37:52;;;;;;;9.60;6.53;;;17.60;1.00;;;;;;7373690;19;20048;-71
2023/09/27 08:40:22;;;;;;;7.90;5.47;;;17.70;1.00;;;;;;7373462;19;20034;-71
2023/09/27 08:43:00;;;;;;;8.15;5.43;;;17.70;1.00;;;;;;7376370;19;20102;-70
2023/09/27 08:45:31;;;;;;;7.80;6.00;;;18.00;1.00;;;;;;7376415;19;20020;-72
2023/09/27 08:48:01;;;;;;;9.05;5.90;;;17.90;1.00;;;;;;7377234;19;20014;-71
2023/09/27 08:50:32;;;;;;;9.55;5.22;;;18.10;1.00;;;;;;7378223;19;20047;-70
2023/09/27 08:53:02;;;;;;;9.05;6.22;;;18.30;1.00;;;;;;7380998;19;20061;-71
2023/09/27 08:55:33;;;;;;;7.55;5.70;;;18.10;1.00;;;;;;7378771;19;20434;-71
2023/09/27 08:58:06;;;;;;;7.38;6.60;;;18.10;1.00;;;;;;7376264;19;20098;-71
2023/09/27 09:00:41;;;;;;;10.05;6.13;;;18.30;1.00;;;;;;7375173;19;20011;-71
2023/09/27 09:03:12;;;;;;;7.65;6.07;;;18.40;1.00;;;;;;7374750;19;20327;-70
2023/09/27 09:05:45;;;;;;;6.90;5.60;;;18.40;1.00;;;;;;7376688;19;20015;-71
2023/09/27 09:08:15;;;;;;;7.88;5.55;;;18.60;1.00;;;;;;7378864;19;20022;-71
2023/09/27 09:10:56;;;;;;;7.22;5.63;;;18.80;1.00;;;;;;7376314;19;20014;-70
2023/09/27 09:13:28;;;;;;;6.50;5.80;;;18.80;1.00;;;;;;7378255;19;20558;-70
2023/09/27 09:15:58;;;;;;;8.23;5.65;;;19.00;1.00;;;;;;7378262;19;20026;-71
2023/09/27 09:18:33;;;;;;;9.98;5.75;;;19.10;1.00;;;;;;7378374;19;20081;-70
2023/09/27 09:21:08;;;;;;;;;;;19.20;1.00;;;;;;7377622;19;20015;-70
2023/09/27 09:23:39;;;;;;;7.47;4.88;;;19.40;1.00;;;;;;7383246;19;19922;-71
2023/09/27 09:26:11;;;;;;;6.95;4.78;;;19.50;1.00;;;;;;7379179;19;20010;-71
2023/09/27 09:29:00;;;;;;;8.00;4.80;;;19.60;1.00;;;;;;7379442;19;20577;-71
2023/09/27 09:31:33;;;;;;;7.43;4.80;;;19.70;1.00;;;;;;7378019;19;20034;-71
2023/09/27 09:34:07;;;;;;;4.93;3.75;;;19.80;1.00;;;;;;7380508;19;20015;-71
2023/09/27 09:36:38;;;;;;;4.80;4.25;;;19.80;1.00;;;;;;7378295;19;20011;-71
2023/09/27 09:39:13;;;;;;;4.15;3.45;;;19.90;1.00;;;;;;7377875;19;20010;-71
2023/09/27 09:41:47;;;;;;;6.80;4.25;;;20.10;1.00;;;;;;7377457;19;20690;-71
2023/09/27 09:44:25;;;;;;;6.38;4.00;;;20.20;1.00;;;;;;7377151;19;20030;-72
2023/09/27 09:46:57;;;;;;;4.45;3.70;;;20.30;1.00;;;;;;7376457;19;20780;-71
2023/09/27 09:49:28;;;;;;;7.47;4.90;;;20.40;1.00;;;;;;7378648;19;20015;-71
2023/09/27 09:51:59;;;;;;;8.52;4.82;;;20.40;1.00;;;;;;7376276;19;20025;-71
2023/09/27 09:54:36;;;;;;;5.22;4.20;;;20.40;1.00;;;;;;7375668;19;20046;-72
2023/09/27 09:57:07;;;;;;;8.63;3.90;;;20.40;1.00;;;;;;7378464;19;20034;-71
2023/09/27 10:00:12;;;;;;;8.35;4.25;;;20.40;1.00;;;;;;7379348;19;20495;-71
2023/09/27 10:02:51;;;;;;;11.57;4.80;;;20.60;1.00;;;;;;7399284;19;20022;-71
2023/09/27 10:05:22;;;;;;;9.40;4.85;;;20.80;1.00;;;;;;7378233;19;20507;-72
2023/09/27 10:07:53;;;;;;;4.85;3.88;;;20.90;1.00;;;;;;7377463;19;20006;-72
2023/09/27 10:10:24;;;;;;;8.43;3.70;;;21.10;1.00;;;;;;7376224;19;20099;-72
2023/09/27 10:12:57;;;;;;;6.75;3.65;;;21.00;1.00;;;;;;7377120;19;20021;-70
2023/09/27 10:15:32;;;;;;;6.20;3.60;;;21.00;1.00;;;;;;7377752;19;20011;-71
2023/09/27 10:18:44;;;;;;;5.65;3.67;;;21.00;1.00;;;;;;7378220;19;20007;-72
2023/09/27 10:21:16;;;;;;;9.32;3.90;;;20.90;1.00;;;;;;7369569;19;20010;-73
2023/09/27 10:24:01;;;;;;;5.53;3.72;;;21.10;1.00;;;;;;7375390;19;20082;-71
2023/09/27 10:26:36;;;;;;;7.03;4.05;;;21.30;1.00;;;;;;7373705;19;20007;-71
2023/09/27 10:29:15;;;;;;;5.97;4.22;;;21.30;1.00;;;;;;7373952;19;20014;-71
2023/09/27 10:32:18;;;;;;;6.55;3.70;;;21.40;1.00;;;;;;7374274;19;20017;-71
2023/09/27 10:34:52;;;;;;;4.30;3.10;;;21.60;1.00;;;;;;7373965;19;20447;-70
2023/09/27 10:37:52;;;;;;;5.53;3.53;;;21.50;1.00;;;;;;7372760;19;20014;-71
2023/09/27 10:40:23;;;;;;;5.65;3.40;;;21.50;1.00;;;;;;7373334;19;20090;-71
2023/09/27 10:42:55;;;;;;;5.82;3.30;;;21.70;1.00;;;;;;7372817;19;20023;-71
2023/09/27 10:45:25;;;;;;;5.07;3.72;;;21.60;1.00;;;;;;7372303;19;20390;-71
2023/09/27 10:47:57;;;;;;;4.70;2.85;;;21.80;1.00;;;;;;7370213;19;20021;-71
2023/09/27 10:50:33;;;;;;;3.72;3.17;;;21.90;1.00;;;;;;7370238;19;20014;-72
2023/09/27 10:53:03;;;;;;;6.57;2.60;;;21.70;1.00;;;;;;7373311;19;20010;-70
2023/09/27 10:55:42;;;;;;;5.38;2.83;;;22.00;1.00;;;;;;7374938;19;20039;-71
2023/09/27 10:58:15;;;;;;;4.60;2.90;;;21.90;1.00;;;;;;7383091;19;20034;-71
2023/09/27 11:00:55;;;;;;;3.03;2.65;;;21.90;1.00;;;;;;7381117;19;20097;-71
2023/09/27 11:03:29;;;;;;;3.88;2.72;;;22.20;1.00;;;;;;7383085;19;20010;-70
2023/09/27 11:06:11;;;;;;;4.05;3.17;;;22.20;1.00;;;;;;7380971;19;20552;-71
2023/09/27 11:08:42;;;;;;;2.72;2.35;;;22.30;1.00;;;;;;7378232;19;20090;-71
2023/09/27 11:11:13;;;;;;;3.45;2.95;;;22.50;1.00;;;;;;7378515;19;20297;-71
2023/09/27 11:13:44;;;;;;;3.63;2.30;;;22.40;1.00;;;;;;7380825;19;20014;-72
2023/09/27 11:16:18;;;;;;;3.83;2.10;;;22.30;1.00;;;;;;7379486;19;20495;-71
2023/09/27 11:18:50;;;;;;;3.90;2.30;;;22.50;1.00;;;;;;7379145;19;20591;-72
2023/09/27 11:21:23;;;;;;;2.83;2.15;;;22.80;1.00;;;;;;7379132;19;20021;-73
2023/09/27 11:23:54;;;;;;;4.47;1.92;;;23.00;1.00;;;;;;7379790;19;20015;-72
2023/09/27 11:26:25;;;;;;;2.42;2.20;;;22.80;1.00;;;;;;7382500;19;20035;-73
2023/09/27 11:29:00;;;;;;;5.55;2.42;;;23.00;1.00;;;;;;7379085;19;20010;-72
2023/09/27 11:31:31;;;;;;;3.80;2.30;;;22.90;1.00;;;;;;7381233;19;20039;-71
2023/09/27 11:34:15;;;;;;;3.00;2.40;;;22.80;1.00;;;;;;7382655;19;20010;-72
2023/09/27 11:36:49;;;;;;;2.47;2.27;;;23.00;1.00;;;;;;7381491;19;20498;-72
2023/09/27 11:39:20;;;;;;;;;;;23.20;1.00;;;;;;7378194;19;20311;-71
2023/09/27 11:41:50;;;;;;;3.65;2.20;;;23.30;1.00;;;;;;7378760;19;19953;-72
2023/09/27 11:44:21;;;;;;;5.10;2.17;;;23.40;1.00;;;;;;7380050;19;20031;-71
2023/09/27 11:46:52;;;;;;;4.13;2.35;;;23.50;1.00;;;;;;7380002;19;20027;-72
2023/09/27 11:49:27;;;;;;;3.05;2.28;;;23.60;1.00;;;;;;7378255;19;20018;-70
2023/09/27 11:52:01;;;;;;;5.70;2.28;;;23.30;1.00;;;;;;7375258;19;20006;-73
2023/09/27 11:54:32;;;;;;;3.42;1.92;;;23.30;1.00;;;;;;7380853;19;20395;-72
2023/09/27 11:57:02;;;;;;;5.93;1.90;;;23.30;1.00;;;;;;7373045;19;20434;-72
2023/09/27 11:59:32;;;;;;;6.15;2.42;;;23.30;1.00;;;;;;7381235;19;20010;-72
2023/09/27 12:02:02;;;;;;;1.75;1.65;;;23.30;1.00;;;;;;7379777;19;20010;-72
2023/09/27 12:04:47;;;;;;;2.55;1.85;;;23.30;1.00;;;;;;7379744;19;20442;-72
2023/09/27 12:07:20;;;;;;;3.10;2.35;;;23.50;1.00;;;;;;7376680;19;20014;-71
2023/09/27 12:09:51;;;;;;;3.77;2.30;;;23.50;1.00;;;;;;7377429;19;20009;-71
2023/09/27 12:12:21;;;;;;;5.35;1.67;;;23.60;1.00;;;;;;7379083;19;20470;-70
2023/09/27 12:14:51;;;;;;;3.35;2.03;;;23.60;1.00;;;;;;7379158;19;20669;-71
2023/09/27 12:17:24;;;;;;;2.22;1.60;;;23.80;1.00;;;;;;7380635;19;20019;-71
2023/09/27 12:19:54;;;;;;;2.65;1.52;;;23.60;1.00;;;;;;7377034;19;20025;-71
2023/09/27 12:22:29;;;;;;;2.65;1.90;;;23.70;1.00;;;;;;7378942;19;20006;-71
2023/09/27 12:24:59;;;;;;;2.03;1.67;;;23.90;1.00;;;;;;7378837;19;20018;-71
2023/09/27 12:27:29;;;;;;;2.90;1.63;;;23.60;1.00;;;;;;7381447;19;20372;-72
2023/09/27 12:29:59;;;;;;;2.95;1.70;;;23.80;1.00;;;;;;7378510;19;20019;-71
2023/09/27 12:32:30;;;;;;;2.35;1.80;;;23.90;1.00;;;;;;7382399;19;20014;-72
2023/09/27 12:35:00;;;;;;;1.70;1.45;;;23.90;1.00;;;;;;7381744;19;20801;-71
2023/09/27 12:37:33;;;;;;;2.00;1.77;;;24.00;1.00;;;;;;7382758;19;20010;-72
2023/09/27 12:40:03;;;;;;;2.60;1.83;;;24.30;1.00;;;;;;7377553;19;20332;-71
2023/09/27 12:42:34;;;;;;;2.65;1.75;;;24.10;1.00;;;;;;7376749;19;20791;-71
2023/09/27 12:45:04;;;;;;;4.22;1.67;;;24.30;1.00;;;;;;7374443;19;20070;-71
2023/09/27 12:47:34;;;;;;;4.00;1.60;;;24.20;1.00;;;;;;7378085;19;20511;-71
2023/09/27 12:50:06;;;;;;;2.28;1.70;;;24.20;1.00;;;;;;7375305;19;20014;-71
2023/09/27 12:52:39;;;;;;;3.33;2.22;;;24.30;1.00;;;;;;7381674;19;20006;-71
2023/09/27 12:55:10;;;;;;;4.53;1.80;;;24.10;1.00;;;;;;7379309;19;20038;-71
2023/09/27 12:57:40;;;;;;;7.90;1.60;;;24.30;1.00;;;;;;7379208;19;20055;-71
2023/09/27 13:00:12;;;;;;;2.33;1.55;;;24.20;1.00;;;;;;7374325;19;20018;-71
2023/09/27 13:02:43;;;;;;;2.63;1.73;;;24.20;1.00;;;;;;7380271;19;20081;-72
2023/09/27 13:05:14;;;;;;;3.92;2.08;;;24.10;1.00;;;;;;7376451;19;20574;-72